Juan_de_la_cosa — ECJE — position and weather

sailwx.info

Track history (hours):
 
Tides and Currents Weather Stations Pressure Air Temp Water Temp Dewpoint Dewpoint Depression Visibility Wind Speed Wind Dir Waves Ship Positions

Juan_de_la_cosa

Last reported at 2016-Dec-08 17:31 UTC. Time now 2016-Dec-08 18:10 UTC.
Position N 43°25' W 001°58'.

Length 75 m.

Type: SAR. MMSI: 224612000.

Date/timePositionNaut miles runAvg speedWind from/ knotsBaromVisibWave heightAir tempDewpointWater temp
2016-Dec-08 17:31N 43°25' W 001°58'6 6.1
2016-Dec-08 16:32N 43°31' W 001°58'6 2.0
2016-Dec-08 13:19N 43°25' W 001°59'2 2.4
2016-Dec-08 12:17N 43°26' W 001°56'8 7.1
2016-Dec-08 11:09N 43°26' W 002°07'712.5
2016-Dec-08 10:33N 43°26' W 001°57'0 0.1
2016-Dec-08 09:14N 43°25' W 001°57'5 0.1
2016-Dec-06 21:32N 43°21' W 001°56'1412.8
2016-Dec-06 20:27N 43°34' W 002°02'8 4.0
2016-Dec-06 18:32N 43°41' W 002°06'14 6.7
2016-Dec-06 16:28N 43°28' W 002°00'6 3.3
2016-Dec-06 14:33N 43°31' W 001°53'12 3.8
2016-Dec-06 11:33N 43°19' W 001°55'0 0.0
2016-Dec-06 09:15N 43°19' W 001°55'0 0.0
2016-Dec-06 08:33N 43°19' W 001°55'0 0.0
2016-Dec-06 07:21N 43°19' W 001°55'0 0.0
2016-Dec-06 06:09N 43°19' W 001°55'0 0.0
2016-Dec-06 05:33N 43°19' W 001°55'0 0.0
2016-Dec-06 01:15N 43°19' W 001°55'0 0.0
2016-Dec-06 00:27N 43°19' W 001°55'0 0.0
2016-Dec-05 23:33N 43°19' W 001°55'0 0.0
2016-Dec-05 22:09N 43°19' W 001°55'0 0.0
2016-Dec-05 21:33N 43°19' W 001°55'0 0.0
2016-Dec-05 19:33N 43°19' W 001°55'0 0.0
2016-Dec-05 18:27N 43°19' W 001°55'0 0.0
2016-Dec-05 17:33N 43°19' W 001°55'0 0.0
2016-Dec-05 16:27N 43°19' W 001°55'0 0.0
2016-Dec-05 15:21N 43°19' W 001°55'  
2016-Nov-30 08:28N 43°19' W 001°55'  
Track history (hours):
 
Tides and Currents Weather Stations Pressure Air Temp Water Temp Dewpoint Dewpoint Depression Visibility Wind Speed Wind Dir Waves Ship Positions

Juan_de_la_cosa

Last reported at 2016-Dec-08 17:31 UTC. Time now 2016-Dec-08 18:10 UTC.
Position N 43°25' W 001°58'.

Length 75 m.

Type: SAR. MMSI: 224612000.

Date/timePositionNaut miles runAvg speedWind from/ knotsBaromVisibWave heightAir tempDewpointWater temp
2016-Dec-08 17:31N 43°25' W 001°58'6 6.1
2016-Dec-08 16:32N 43°31' W 001°58'6 2.0
2016-Dec-08 13:19N 43°25' W 001°59'2 2.4
2016-Dec-08 12:17N 43°26' W 001°56'8 7.1
2016-Dec-08 11:09N 43°26' W 002°07'712.5
2016-Dec-08 10:33N 43°26' W 001°57'0 0.1
2016-Dec-08 09:14N 43°25' W 001°57'5 0.1
2016-Dec-06 21:32N 43°21' W 001°56'1412.8
2016-Dec-06 20:27N 43°34' W 002°02'8 4.0
2016-Dec-06 18:32N 43°41' W 002°06'14 6.7
2016-Dec-06 16:28N 43°28' W 002°00'6 3.3
2016-Dec-06 14:33N 43°31' W 001°53'12 3.8
2016-Dec-06 11:33N 43°19' W 001°55'0 0.0
2016-Dec-06 09:15N 43°19' W 001°55'0 0.0
2016-Dec-06 08:33N 43°19' W 001°55'0 0.0
2016-Dec-06 07:21N 43°19' W 001°55'0 0.0
2016-Dec-06 06:09N 43°19' W 001°55'0 0.0
2016-Dec-06 05:33N 43°19' W 001°55'0 0.0
2016-Dec-06 01:15N 43°19' W 001°55'0 0.0
2016-Dec-06 00:27N 43°19' W 001°55'0 0.0
2016-Dec-05 23:33N 43°19' W 001°55'0 0.0
2016-Dec-05 22:09N 43°19' W 001°55'0 0.0
2016-Dec-05 21:33N 43°19' W 001°55'0 0.0
2016-Dec-05 19:33N 43°19' W 001°55'0 0.0
2016-Dec-05 18:27N 43°19' W 001°55'0 0.0
2016-Dec-05 17:33N 43°19' W 001°55'0 0.0
2016-Dec-05 16:27N 43°19' W 001°55'0 0.0
2016-Dec-05 15:21N 43°19' W 001°55'  
2016-Nov-30 08:28N 43°19' W 001°55'  

Dump ship's entire track history